createdAt,value
2015-11-28T00:00:49.073Z,1000.8
2015-11-28T00:01:49.248Z,1000.8
2015-11-28T00:02:48.954Z,1000.9
2015-11-28T00:03:48.941Z,1000.8
2015-11-28T00:04:48.834Z,1000.8
2015-11-28T00:05:48.775Z,1000.8
2015-11-28T00:06:48.715Z,1000.7
2015-11-28T00:07:48.859Z,1000.7
2015-11-28T00:08:48.595Z,1000.7
2015-11-28T00:09:48.536Z,1000.7
2015-11-28T00:10:48.476Z,1000.6
2015-11-28T00:11:48.417Z,1000.6
2015-11-28T00:12:48.357Z,1000.7
2015-11-28T00:13:48.344Z,1000.7
2015-11-28T00:14:48.253Z,1000.6
2015-11-28T00:15:48.177Z,1000.6
2015-11-28T00:16:48.117Z,1000.6
2015-11-28T00:17:47.323Z,1000.6
2015-11-28T00:18:47.998Z,1000.5
2015-11-28T00:19:47.938Z,1000.5
2015-11-28T00:20:47.926Z,1000.5
2015-11-28T00:21:47.819Z,1000.5
2015-11-28T00:22:47.759Z,1000.5
2015-11-28T00:23:47.699Z,1000.5
2015-11-28T00:24:47.843Z,1000.5
2015-11-28T00:25:47.564Z,1000.5
2015-11-28T00:26:47.755Z,1000.5
2015-11-28T00:27:47.460Z,1000.6
2015-11-28T00:28:47.401Z,1000.4
2015-11-28T00:29:47.388Z,1000.5
2015-11-28T00:30:47.281Z,1000.5
2015-11-28T00:31:47.222Z,1000.4
2015-11-28T00:32:47.161Z,1000.4
2015-11-28T00:33:47.102Z,1000.3
2015-11-28T00:34:47.042Z,1000.3
2015-11-28T00:35:46.998Z,1000.5
2015-11-28T00:36:46.920Z,1000.3
2015-11-28T00:37:46.907Z,1000.3
2015-11-28T00:38:46.816Z,1000.4
2015-11-28T00:39:46.756Z,1000.3
2015-11-28T00:40:46.696Z,1000.3
2015-11-28T00:41:46.636Z,1000.4
2015-11-28T00:42:46.764Z,1000.3
2015-11-28T00:43:46.517Z,1000.2
2015-11-28T00:44:46.457Z,1000.1
2015-11-28T00:45:46.397Z,1000.3
2015-11-28T00:46:46.322Z,1000.3
2015-11-28T00:47:46.278Z,1000.2
2015-11-28T00:48:46.250Z,1000.1
2015-11-28T00:49:46.159Z,1000.2
2015-11-28T00:50:46.130Z,1000.1
2015-11-28T00:51:46.055Z,1000.2
2015-11-28T00:52:45.980Z,1000.1
2015-11-28T00:53:45.919Z,1000.1
2015-11-28T00:54:45.922Z,1000.2
2015-11-28T00:55:45.800Z,1000.1
2015-11-28T00:56:44.991Z,1000
2015-11-28T00:57:45.696Z,1000.1
2015-11-28T00:58:45.621Z,1000.2
2015-11-28T00:59:45.561Z,1000.1
2015-11-28T01:00:45.502Z,1000
2015-11-28T01:01:45.457Z,1000.1
2015-11-28T01:02:44.633Z,1000.1
2015-11-28T01:03:45.338Z,1000.1
2015-11-28T01:04:45.466Z,999.9
2015-11-28T01:05:45.219Z,1000
2015-11-28T01:06:45.143Z,1000
2015-11-28T01:07:45.099Z,999.9
2015-11-28T01:08:45.040Z,1000
2015-11-28T01:09:44.980Z,1000
2015-11-28T01:10:45.108Z,1000
2015-11-28T01:11:44.860Z,1000
2015-11-28T01:12:44.846Z,1000
2015-11-28T01:13:44.943Z,1000
2015-11-28T01:14:44.724Z,1000
2015-11-28T01:15:44.618Z,999.9
2015-11-28T01:16:44.543Z,1000.1
2015-11-28T01:17:44.499Z,1000
2015-11-28T01:18:44.440Z,1000
2015-11-28T01:19:44.363Z,999.9
2015-11-28T01:20:44.320Z,1000
2015-11-28T01:21:44.276Z,1000
2015-11-28T01:22:46.951Z,999.9
2015-11-28T01:23:43.374Z,1000
2015-11-28T01:24:44.065Z,999.9
2015-11-28T01:25:44.021Z,1000
2015-11-28T01:26:44.195Z,999.9
2015-11-28T01:27:43.917Z,999.9
2015-11-28T01:28:43.842Z,999.9
2015-11-28T01:29:43.782Z,999.9
2015-11-28T01:30:43.753Z,1000
2015-11-28T01:31:43.646Z,999.9
2015-11-28T01:32:43.603Z,999.8
2015-11-28T01:33:43.543Z,999.8
2015-11-28T01:34:43.484Z,999.9
2015-11-28T01:35:43.423Z,999.9
2015-11-28T01:36:43.364Z,999.8
2015-11-28T01:37:43.304Z,999.9
2015-11-28T01:38:43.229Z,999.8
2015-11-28T01:39:43.185Z,999.8
2015-11-28T01:40:43.329Z,999.9
2015-11-28T01:41:43.065Z,999.8
2015-11-28T01:42:42.990Z,999.8
2015-11-28T01:43:42.946Z,999.9
2015-11-28T01:44:42.871Z,999.7
2015-11-28T01:45:42.826Z,999.7
2015-11-28T01:46:42.751Z,999.7
2015-11-28T01:47:42.690Z,999.7
2015-11-28T01:48:42.632Z,999.7
2015-11-28T01:49:42.588Z,999.8
2015-11-28T01:50:42.512Z,999.7
2015-11-28T01:51:42.451Z,999.7
2015-11-28T01:52:42.408Z,999.6
2015-11-28T01:53:42.331Z,999.7
2015-11-28T01:54:42.269Z,999.5
2015-11-28T01:55:42.209Z,999.6
2015-11-28T01:56:42.150Z,999.5
2015-11-28T01:57:42.106Z,999.6
2015-11-28T01:58:42.031Z,999.6
2015-11-28T01:59:42.049Z,999.4
2015-11-28T02:00:41.911Z,999.5
2015-11-28T02:01:41.851Z,999.4
2015-11-28T02:02:41.792Z,999.5
2015-11-28T02:03:41.732Z,999.5
2015-11-28T02:04:41.859Z,999.5
2015-11-28T02:05:41.472Z,999.4
2015-11-28T02:06:41.787Z,999.4
2015-11-28T02:07:41.493Z,999.4
2015-11-28T02:08:41.433Z,999.3
2015-11-28T02:09:41.374Z,999.3
2015-11-28T02:10:41.298Z,999.2
2015-11-28T02:11:41.270Z,999.3
2015-11-28T02:12:41.178Z,999.2
2015-11-28T02:13:41.370Z,999.1
2015-11-28T02:14:41.060Z,999.2
2015-11-28T02:15:40.250Z,999.2
2015-11-28T02:16:40.940Z,999.3
2015-11-28T02:17:40.880Z,999.2
2015-11-28T02:18:40.821Z,999.1
2015-11-28T02:19:40.761Z,999
2015-11-28T02:20:40.904Z,999.1
2015-11-28T02:21:40.642Z,999
2015-11-28T02:22:40.816Z,999.1
2015-11-28T02:23:40.584Z,999.1
2015-11-28T02:24:40.462Z,999
2015-11-28T02:25:40.403Z,999
2015-11-28T02:26:40.343Z,999
2015-11-28T02:27:40.314Z,999
2015-11-28T02:28:40.213Z,999
2015-11-28T02:29:40.153Z,999
2015-11-28T02:30:40.093Z,999
2015-11-28T02:31:40.033Z,999
2015-11-28T02:32:39.971Z,999
2015-11-28T02:33:39.911Z,999
2015-11-28T02:34:39.867Z,999
2015-11-28T02:35:39.838Z,998.8
2015-11-28T02:36:39.763Z,998.9
2015-11-28T02:37:39.875Z,998.8
2015-11-28T02:40:23.493Z,998.8
2015-11-28T02:41:16.933Z,998.8
2015-11-28T02:42:16.842Z,998.8
2015-11-28T02:43:16.829Z,998.9
2015-11-28T02:44:16.739Z,998.8
2015-11-28T02:45:16.694Z,998.8
2015-11-28T02:46:16.602Z,998.7
2015-11-28T02:47:15.809Z,998.7
2015-11-28T02:48:16.499Z,998.7
2015-11-28T02:49:16.455Z,998.6
2015-11-28T02:50:16.364Z,998.7
2015-11-28T02:51:16.352Z,998.6
2015-11-28T02:52:16.447Z,998.5
2015-11-28T02:53:16.185Z,998.6
2015-11-28T02:54:16.109Z,998.6
2015-11-28T02:55:15.924Z,998.6
2015-11-28T02:56:16.005Z,998.5
2015-11-28T02:57:15.946Z,998.5
2015-11-28T02:58:15.870Z,998.6
2015-11-28T02:59:15.292Z,998.6
2015-11-28T03:00:15.763Z,998.6
2015-11-28T03:01:15.719Z,998.5
2015-11-28T03:02:15.644Z,998.6
2015-11-28T03:03:15.584Z,998.4
2015-11-28T03:04:15.524Z,998.4
2015-11-28T03:05:15.309Z,998.3
2015-11-28T03:06:15.405Z,998.3
2015-11-28T03:07:15.408Z,998.3
2015-11-28T03:08:15.270Z,998.3
2015-11-28T03:09:15.288Z,998.3
2015-11-28T03:10:15.151Z,998.3
2015-11-28T03:11:15.106Z,998.4
2015-11-28T03:12:15.234Z,998.2
2015-11-28T03:13:14.987Z,998.3
2015-11-28T03:14:14.912Z,998.3
2015-11-28T03:15:14.852Z,998.3
2015-11-28T03:16:14.792Z,998.2
2015-11-28T03:17:14.935Z,998.3
2015-11-28T03:18:14.735Z,998.1
2015-11-28T03:19:14.910Z,998.2
2015-11-28T03:20:14.554Z,998.2
2015-11-28T03:21:14.524Z,998.3
2015-11-28T03:22:14.668Z,998.3
2015-11-28T03:23:14.374Z,998.3
2015-11-28T03:24:14.329Z,998.3
2015-11-28T03:25:14.473Z,998.2
2015-11-28T03:26:14.195Z,998.1
2015-11-28T03:27:14.135Z,998
2015-11-28T03:28:14.075Z,998.1
2015-11-28T03:29:14.031Z,998
2015-11-28T03:30:13.940Z,998
2015-11-28T03:31:13.896Z,998
2015-11-28T03:32:13.852Z,998.1
2015-11-28T03:33:13.807Z,998
2015-11-28T03:34:13.701Z,998
2015-11-28T03:35:13.656Z,998.1
2015-11-28T03:36:13.831Z,998
2015-11-28T03:37:13.568Z,998
2015-11-28T03:38:13.462Z,997.9
2015-11-28T03:39:13.417Z,997.9
2015-11-28T03:40:13.339Z,997.9
2015-11-28T03:41:13.295Z,997.8
2015-11-28T03:42:13.220Z,997.9
2015-11-28T03:43:13.161Z,997.9
2015-11-28T03:44:13.351Z,997.8
2015-11-28T03:45:13.042Z,997.8
2015-11-28T03:46:12.981Z,997.8
2015-11-28T03:47:12.922Z,997.8
2015-11-28T03:48:12.862Z,997.7
2015-11-28T03:49:12.803Z,997.8
2015-11-28T03:50:12.742Z,997.6
2015-11-28T03:51:12.682Z,997.7
2015-11-28T03:52:12.869Z,997.5
2015-11-28T03:53:12.793Z,997.5
2015-11-28T03:54:12.467Z,997.6
2015-11-28T03:55:12.392Z,997.6
2015-11-28T03:56:12.316Z,997.7
2015-11-28T03:57:12.244Z,997.6
2015-11-28T03:58:11.428Z,997.7
2015-11-28T03:59:11.957Z,997.6
2015-11-28T04:00:12.047Z,997.6
2015-11-28T04:01:11.998Z,997.7
2015-11-28T04:02:12.121Z,997.5
2015-11-28T04:03:11.888Z,997.6
2015-11-28T04:04:11.779Z,997.5
2015-11-28T04:05:11.968Z,997.4
2015-11-28T04:06:11.656Z,997.5
2015-11-28T04:07:11.612Z,997.3
2015-11-28T04:08:11.566Z,997.3
2015-11-28T04:09:11.490Z,997.4
2015-11-28T04:10:11.429Z,997.2
2015-11-28T04:11:11.354Z,997.3
2015-11-28T04:12:11.293Z,997.5
2015-11-28T04:13:11.233Z,997.4
2015-11-28T04:14:11.173Z,997.3
2015-11-28T04:15:11.129Z,997.3
2015-11-28T04:16:11.052Z,997.3
2015-11-28T04:17:11.008Z,997.3
2015-11-28T04:18:10.929Z,997.2
2015-11-28T04:19:10.886Z,997.2
2015-11-28T04:20:10.826Z,997.2
2015-11-28T04:21:10.735Z,997.2
2015-11-28T04:22:10.690Z,997.2
2015-11-28T04:23:10.632Z,997.3
2015-11-28T04:24:10.587Z,997.3
2015-11-28T04:25:10.512Z,997.1
2015-11-28T04:26:10.451Z,997.1
2015-11-28T04:27:10.377Z,997.1
2015-11-28T04:28:10.332Z,997.1
2015-11-28T04:29:10.257Z,997.1
2015-11-28T04:30:10.198Z,997
2015-11-28T04:31:10.154Z,997.2
2015-11-28T04:32:10.094Z,997.1
2015-11-28T04:33:10.018Z,997.2
2015-11-28T04:34:09.943Z,997.2
2015-11-28T04:35:09.914Z,997.1
2015-11-28T04:36:09.823Z,997.1
2015-11-28T04:37:09.783Z,997.1
2015-11-28T04:38:09.724Z,997.2
2015-11-28T04:39:09.633Z,997.2
2015-11-28T04:40:09.572Z,997.1
2015-11-28T04:41:09.513Z,996.9
2015-11-28T04:42:09.516Z,997
2015-11-28T04:43:09.410Z,997
2015-11-28T04:44:09.350Z,996.9
2015-11-28T04:45:09.290Z,996.9
2015-11-28T04:46:09.231Z,996.9
2015-11-28T04:47:09.171Z,997
2015-11-28T04:48:09.111Z,997
2015-11-28T04:49:09.035Z,996.8
2015-11-28T04:50:08.960Z,997
2015-11-28T04:51:08.963Z,996.9
2015-11-28T04:52:08.871Z,997
2015-11-28T04:53:08.796Z,996.9
2015-11-28T04:54:08.924Z,997.1
2015-11-28T04:55:08.861Z,996.9
2015-11-28T04:56:08.646Z,996.9
2015-11-28T04:57:08.554Z,996.8
2015-11-28T04:58:08.729Z,996.8
2015-11-28T04:59:08.419Z,996.8
2015-11-28T05:00:08.438Z,996.7
2015-11-28T05:01:08.347Z,996.7
2015-11-28T05:02:08.256Z,996.6
2015-11-28T05:03:08.415Z,996.7
2015-11-28T05:04:08.121Z,996.6
2015-11-28T05:05:08.061Z,996.6
2015-11-28T05:06:08.001Z,996.6
2015-11-28T05:07:07.941Z,996.6
2015-11-28T05:08:07.960Z,996.6
2015-11-28T05:09:07.822Z,996.6
2015-11-28T05:10:07.746Z,996.5
2015-11-28T05:11:07.984Z,996.5
2015-11-28T05:12:07.658Z,996.5
2015-11-28T05:13:07.568Z,996.6
2015-11-28T05:14:07.508Z,996.6
2015-11-28T05:15:07.448Z,996.6
2015-11-28T05:16:07.388Z,996.5
2015-11-28T05:17:07.343Z,996.5
2015-11-28T05:18:07.284Z,996.6
2015-11-28T05:19:07.240Z,996.6
2015-11-28T05:20:07.352Z,996.5
2015-11-28T05:21:07.090Z,996.4
2015-11-28T05:22:07.045Z,996.5
2015-11-28T05:23:06.985Z,996.4
2015-11-28T05:24:06.910Z,996.5
2015-11-28T05:25:06.865Z,996.4
2015-11-28T05:26:07.010Z,996.5
2015-11-28T05:27:06.746Z,996.4
2015-11-28T05:28:05.843Z,996.5
2015-11-28T05:29:06.876Z,996.4
2015-11-28T05:30:06.474Z,996.4
2015-11-28T05:31:06.507Z,996.4
2015-11-28T05:32:06.432Z,996.4
2015-11-28T05:33:06.372Z,996.4
2015-11-28T05:34:06.328Z,996.3
2015-11-28T05:35:06.254Z,996.3
2015-11-28T05:36:06.193Z,996.3
2015-11-28T05:37:06.195Z,996.4
2015-11-28T05:38:06.086Z,996.3
2015-11-28T05:39:06.012Z,996.3
2015-11-28T05:40:05.951Z,996.2
2015-11-28T05:41:05.907Z,996.3
2015-11-28T05:42:05.848Z,996.3
2015-11-28T05:43:05.772Z,996.3
2015-11-28T05:44:05.712Z,996.2
2015-11-28T05:45:05.653Z,996.2
2015-11-28T05:46:05.609Z,996.3
2015-11-28T05:47:05.548Z,996.3
2015-11-28T05:48:05.489Z,996.2
2015-11-28T05:49:05.461Z,996.2
2015-11-28T05:50:05.354Z,996.2
2015-11-28T05:51:05.309Z,996.3
2015-11-28T05:52:05.250Z,996.2
2015-11-28T05:53:05.206Z,996.2
2015-11-28T05:54:05.365Z,996.2
2015-11-28T05:55:05.290Z,996.3
2015-11-28T05:56:05.012Z,996.4
2015-11-28T05:57:04.951Z,996.4
2015-11-28T05:58:04.922Z,996.3
2015-11-28T05:59:04.816Z,996.3
2015-11-28T06:00:04.772Z,996.4
2015-11-28T06:01:04.540Z,996.4
2015-11-28T06:02:04.497Z,996.3
2015-11-28T06:03:04.577Z,996.3
2015-11-28T06:04:04.564Z,996.3
2015-11-28T06:05:04.473Z,996.2
2015-11-28T06:06:04.398Z,996.2
2015-11-28T06:07:04.369Z,996.1
2015-11-28T06:08:04.294Z,996.2
2015-11-28T06:09:04.234Z,996.2
2015-11-28T06:10:04.159Z,996.2
2015-11-28T06:11:04.114Z,996.1
2015-11-28T06:12:04.055Z,996.2
2015-11-28T06:13:03.980Z,996.2
2015-11-28T06:14:03.950Z,996.1
2015-11-28T06:15:03.876Z,996.1
2015-11-28T06:16:03.863Z,996
2015-11-28T06:17:03.772Z,996
2015-11-28T06:18:03.930Z,996.2
2015-11-28T06:19:03.636Z,996.3
2015-11-28T06:20:03.558Z,996.3
2015-11-28T06:21:03.514Z,996.1
2015-11-28T06:22:03.502Z,996.1
2015-11-28T06:23:03.394Z,996.2
2015-11-28T06:24:03.335Z,996.2
2015-11-28T06:25:03.510Z,996.2
2015-11-28T06:26:03.216Z,996.2
2015-11-28T06:27:03.188Z,996.2
2015-11-28T06:28:03.112Z,996.2
2015-11-28T06:29:03.114Z,996.2
2015-11-28T06:30:03.180Z,996.3
2015-11-28T06:31:02.933Z,996.3
2015-11-28T06:32:02.872Z,996.3
2015-11-28T06:33:02.830Z,996.3
2015-11-28T06:34:02.753Z,996.4
2015-11-28T06:35:02.944Z,996.3
2015-11-28T06:36:02.633Z,996.3
2015-11-28T06:37:02.574Z,996.3
2015-11-28T06:38:02.514Z,996.4
2015-11-28T06:39:02.439Z,996.3
2015-11-28T06:40:02.582Z,996.3
2015-11-28T06:41:02.538Z,996.4
2015-11-28T06:42:02.275Z,996.5
2015-11-28T06:43:02.215Z,996.3
2015-11-28T06:44:02.141Z,996.3
2015-11-28T06:45:02.096Z,996.3
2015-11-28T06:46:02.099Z,996.4
2015-11-28T06:47:02.024Z,996.3
2015-11-28T06:48:01.933Z,996.3
2015-11-28T06:49:01.857Z,996.4
2015-11-28T06:50:02.001Z,996.4
2015-11-28T06:51:01.753Z,996.4
2015-11-28T06:52:01.694Z,996.4
2015-11-28T06:53:01.634Z,996.3
2015-11-28T06:54:01.558Z,996.5
2015-11-28T06:55:01.498Z,996.4
2015-11-28T06:56:01.454Z,996.5
2015-11-28T06:57:01.598Z,996.5
2015-11-28T06:58:01.382Z,996.5
2015-11-28T06:59:01.276Z,996.4
2015-11-28T07:00:01.232Z,996.5
2015-11-28T07:01:01.171Z,996.3
2015-11-28T07:02:01.112Z,996.4
2015-11-28T07:03:01.051Z,996.5
2015-11-28T07:04:01.007Z,996.6
2015-11-28T07:05:00.945Z,996.4
2015-11-28T07:06:00.870Z,996.5
2015-11-28T07:07:00.810Z,996.4
2015-11-28T07:08:00.750Z,996.3
2015-11-28T07:09:00.708Z,996.4
2015-11-28T07:10:00.617Z,996.5
2015-11-28T07:11:00.573Z,996.4
2015-11-28T07:12:00.513Z,996.5
2015-11-28T07:13:00.454Z,996.5
2015-11-28T07:14:00.392Z,996.5
2015-11-28T07:14:59.582Z,996.6
2015-11-28T07:16:00.287Z,996.5
2015-11-28T07:17:00.229Z,996.5
2015-11-28T07:18:00.153Z,996.4
2015-11-28T07:19:00.109Z,996.5
2015-11-28T07:19:59.894Z,996.5
2015-11-28T07:21:00.038Z,996.5
2015-11-28T07:21:59.946Z,996.5
2015-11-28T07:22:59.886Z,996.4
2015-11-28T07:23:59.827Z,996.5
2015-11-28T07:25:00.001Z,996.4
2015-11-28T07:25:59.688Z,996.5
2015-11-28T07:26:59.631Z,996.4
2015-11-28T07:27:59.587Z,996.4
2015-11-28T07:28:59.731Z,996.5
2015-11-28T07:29:59.468Z,996.5
2015-11-28T07:30:59.423Z,996.5
2015-11-28T07:31:59.348Z,996.5
2015-11-28T07:32:59.304Z,996.4
2015-11-28T07:33:59.226Z,996.4
2015-11-28T07:34:59.184Z,996.5
2015-11-28T07:35:59.109Z,996.5
2015-11-28T07:36:59.065Z,996.5
2015-11-28T07:37:59.036Z,996.5
2015-11-28T07:38:58.961Z,996.4
2015-11-28T07:39:58.901Z,996.4
2015-11-28T07:40:58.842Z,996.5
2015-11-28T07:41:58.766Z,996.5
2015-11-28T07:42:58.706Z,996.4
2015-11-28T07:43:58.692Z,996.5
2015-11-28T07:44:58.586Z,996.5
2015-11-28T07:45:58.542Z,996.5
2015-11-28T07:46:58.482Z,996.4
2015-11-28T07:47:58.435Z,996.5
2015-11-28T07:48:58.361Z,996.5
2015-11-28T07:49:58.316Z,996.6
2015-11-28T07:50:58.241Z,996.5
2015-11-28T07:51:58.197Z,996.4
2015-11-28T07:52:58.121Z,996.5
2015-11-28T07:53:58.061Z,996.5
2015-11-28T07:54:58.205Z,996.4
2015-11-28T07:55:57.942Z,996.5
2015-11-28T07:56:57.885Z,996.6
2015-11-28T07:57:57.824Z,996.5
2015-11-28T07:58:57.764Z,996.5
2015-11-28T07:59:56.954Z,996.4
2015-11-28T08:00:57.676Z,996.5
2015-11-28T08:01:57.598Z,996.7
2015-11-28T08:02:57.524Z,996.6
2015-11-28T08:03:57.480Z,996.5
2015-11-28T08:04:57.420Z,996.6
2015-11-28T08:05:57.360Z,996.5
2015-11-28T08:06:57.300Z,996.6
2015-11-28T08:07:57.255Z,996.6
2015-11-28T08:08:57.196Z,996.7
2015-11-28T08:09:57.138Z,996.5
2015-11-28T08:10:57.062Z,996.6
2015-11-28T08:11:57.017Z,996.6
2015-11-28T08:12:56.943Z,996.6
2015-11-28T08:13:56.899Z,996.5
2015-11-28T08:14:56.837Z,996.5
2015-11-28T08:15:56.778Z,996.6
2015-11-28T08:16:56.796Z,996.5
2015-11-28T08:17:56.659Z,996.5
2015-11-28T08:18:56.600Z,996.5
2015-11-28T08:19:56.602Z,996.5
2015-11-28T08:20:56.527Z,996.4
2015-11-28T08:21:56.417Z,996.5
2015-11-28T08:22:56.390Z,996.5
2015-11-28T08:23:56.315Z,996.5
2015-11-28T08:24:56.256Z,996.4
2015-11-28T08:25:56.273Z,996.5
2015-11-28T08:26:56.137Z,996.5
2015-11-28T08:27:56.077Z,996.6
2015-11-28T08:28:56.018Z,996.6
2015-11-28T08:29:55.973Z,996.5
2015-11-28T08:30:55.912Z,996.5
2015-11-28T08:31:55.834Z,996.6
2015-11-28T08:32:55.790Z,996.6
2015-11-28T08:33:55.717Z,996.6
2015-11-28T08:34:55.659Z,996.5
2015-11-28T08:35:55.629Z,996.6
2015-11-28T08:36:55.569Z,996.6
2015-11-28T08:37:55.479Z,996.6
2015-11-28T08:38:55.450Z,996.7
2015-11-28T08:39:55.387Z,996.7
2015-11-28T08:40:55.300Z,996.8
2015-11-28T08:41:55.240Z,996.7
2015-11-28T08:42:55.164Z,996.8
2015-11-28T08:43:55.323Z,996.8
2015-11-28T08:44:55.044Z,996.8
2015-11-28T08:45:55.000Z,996.7
2015-11-28T08:46:54.922Z,996.8
2015-11-28T08:47:54.880Z,996.9
2015-11-28T08:48:54.805Z,997
2015-11-28T08:49:54.761Z,996.8
2015-11-28T08:50:54.701Z,996.8
2015-11-28T08:51:53.907Z,996.9
2015-11-28T08:52:54.582Z,996.8
2015-11-28T08:53:54.569Z,996.9
2015-11-28T08:54:54.475Z,997
2015-11-28T08:55:54.416Z,996.9
2015-11-28T08:56:54.327Z,997.1
2015-11-28T08:57:54.283Z,997
2015-11-28T08:58:54.223Z,996.8
2015-11-28T08:59:54.146Z,996.9
2015-11-28T09:00:54.103Z,997
2015-11-28T09:01:54.040Z,996.9
2015-11-28T09:02:53.997Z,997
2015-11-28T09:03:53.939Z,996.9
2015-11-28T09:04:53.925Z,997
2015-11-28T09:05:53.882Z,997
2015-11-28T09:06:53.759Z,997
2015-11-28T09:07:53.700Z,997
2015-11-28T09:08:53.637Z,997
2015-11-28T09:09:53.578Z,996.9
2015-11-28T09:10:53.520Z,997
2015-11-28T09:11:53.461Z,996.9
2015-11-28T09:12:53.432Z,997
2015-11-28T09:13:53.341Z,997
2015-11-28T09:14:53.297Z,997
2015-11-28T09:15:53.234Z,997
2015-11-28T09:16:53.175Z,997.1
2015-11-28T09:17:53.116Z,997.1
2015-11-28T09:18:53.057Z,997
2015-11-28T09:19:52.982Z,997
2015-11-28T09:20:52.922Z,997.1
2015-11-28T09:21:52.860Z,997
2015-11-28T09:22:53.003Z,997.1
2015-11-28T09:23:52.758Z,997.1
2015-11-28T09:24:52.699Z,997.1
2015-11-28T09:25:52.638Z,997.1
2015-11-28T09:26:52.579Z,997.2
2015-11-28T09:27:52.516Z,997.2
2015-11-28T09:28:52.457Z,997.2
2015-11-28T09:29:52.415Z,997.2
2015-11-28T09:30:52.340Z,997.1
2015-11-28T09:31:52.295Z,997.2
2015-11-28T09:32:52.235Z,997.2
2015-11-28T09:33:52.176Z,997.2
2015-11-28T09:34:52.351Z,997.3
2015-11-28T09:35:52.054Z,997.2
2015-11-28T09:36:52.009Z,997.2
2015-11-28T09:37:51.952Z,997.2
2015-11-28T09:38:51.876Z,997.4
2015-11-28T09:39:51.817Z,997.3
2015-11-28T09:40:51.961Z,997.4
2015-11-28T09:41:51.745Z,997.3
2015-11-28T09:42:51.667Z,997.5
2015-11-28T09:43:51.575Z,997.4
2015-11-28T09:44:51.514Z,997.4
2015-11-28T09:45:51.458Z,997.4
2015-11-28T09:46:51.398Z,997.4
2015-11-28T09:47:51.401Z,997.4
2015-11-28T09:48:51.294Z,997.4
2015-11-28T09:49:51.219Z,997.5
2015-11-28T09:50:51.362Z,997.4
2015-11-28T09:51:51.299Z,997.5
2015-11-28T09:52:51.068Z,997.5
2015-11-28T09:53:50.996Z,997.4
2015-11-28T09:54:50.983Z,997.5
2015-11-28T09:55:50.922Z,997.5
2015-11-28T09:56:50.816Z,997.5
2015-11-28T09:57:50.756Z,997.4
2015-11-28T09:58:50.693Z,997.5
2015-11-28T09:59:50.649Z,997.5
2015-11-28T10:00:50.623Z,997.6
2015-11-28T10:01:50.517Z,997.4
2015-11-28T10:02:50.473Z,997.6
2015-11-28T10:03:50.412Z,997.5
2015-11-28T10:04:50.368Z,997.6
2015-11-28T10:05:50.290Z,997.6
2015-11-28T10:06:50.231Z,997.6
2015-11-28T10:07:50.171Z,997.6
2015-11-28T10:08:50.113Z,997.6
2015-11-28T10:09:50.272Z,997.6
2015-11-28T10:10:49.978Z,997.6
2015-11-28T10:11:49.919Z,997.6
2015-11-28T10:12:49.875Z,997.6
2015-11-28T10:13:50.002Z,997.7
2015-11-28T10:14:49.736Z,997.7
2015-11-28T10:15:49.678Z,997.6
2015-11-28T10:16:49.618Z,997.7
2015-11-28T10:17:49.590Z,997.7
2015-11-28T10:18:49.514Z,997.8
2015-11-28T10:19:49.454Z,997.8
2015-11-28T10:20:49.395Z,997.8
2015-11-28T10:21:49.335Z,997.8
2015-11-28T10:22:49.259Z,997.8
2015-11-28T10:23:49.200Z,997.7
2015-11-28T10:24:49.140Z,997.8
2015-11-28T10:25:49.080Z,997.8
2015-11-28T10:26:49.083Z,997.8
2015-11-28T10:27:49.007Z,998
2015-11-28T10:28:48.947Z,997.9
2015-11-28T10:29:48.857Z,998
2015-11-28T10:30:48.782Z,998
2015-11-28T10:31:48.723Z,998
2015-11-28T10:32:48.678Z,998
2015-11-28T10:33:48.681Z,997.9
2015-11-28T10:34:48.559Z,997.9
2015-11-28T10:35:48.498Z,997.9
2015-11-28T10:36:48.439Z,998
2015-11-28T10:37:48.394Z,998
2015-11-28T10:38:48.320Z,997.9
2015-11-28T10:39:48.275Z,998
2015-11-28T10:40:48.197Z,998.1
2015-11-28T10:41:48.153Z,998
2015-11-28T10:42:48.078Z,998
2015-11-28T10:43:48.034Z,998.1
2015-11-28T10:44:47.959Z,998.2
2015-11-28T10:45:47.899Z,998.1
2015-11-28T10:46:47.840Z,998.2
2015-11-28T10:47:47.827Z,998
2015-11-28T10:48:47.002Z,998.1
2015-11-28T10:49:47.660Z,998
2015-11-28T10:50:47.601Z,998.2
2015-11-28T10:51:47.557Z,998.3
2015-11-28T10:52:47.544Z,998.2
2015-11-28T10:53:47.279Z,998.3
2015-11-28T10:54:47.375Z,998.3
2015-11-28T10:55:47.318Z,998.3
2015-11-28T10:56:47.257Z,998.3
2015-11-28T10:57:47.198Z,998.3
2015-11-28T10:58:47.154Z,998.4
2015-11-28T10:59:47.094Z,998.3
2015-11-28T11:00:47.065Z,998.4
2015-11-28T11:01:46.956Z,998.3
2015-11-28T11:02:46.915Z,998.5
2015-11-28T11:03:46.871Z,998.5
2015-11-28T11:04:46.795Z,998.5
2015-11-28T11:05:46.750Z,998.4
2015-11-28T11:06:46.660Z,998.7
2015-11-28T11:07:46.598Z,998.6
2015-11-28T11:08:46.554Z,998.6
2015-11-28T11:09:46.481Z,998.6
2015-11-28T11:10:46.436Z,998.7
2015-11-28T11:11:46.580Z,998.6
2015-11-28T11:12:46.316Z,998.5
2015-11-28T11:13:46.272Z,998.5
2015-11-28T11:14:46.197Z,998.7
2015-11-28T11:15:46.134Z,998.7
2015-11-28T11:16:46.075Z,998.7
2015-11-28T11:17:46.017Z,998.8
2015-11-28T11:18:45.989Z,998.8
2015-11-28T11:19:45.913Z,998.8
2015-11-28T11:20:45.854Z,998.8
2015-11-28T11:21:45.810Z,998.5
2015-11-28T11:22:45.105Z,998.8
2015-11-28T11:23:46.096Z,998.8
2015-11-28T11:24:48.156Z,998.8
2015-11-28T11:25:46.288Z,998.7
2015-11-28T11:26:46.151Z,998.9
2015-11-28T11:27:45.591Z,998.8
2015-11-28T11:28:46.813Z,998.8
2015-11-28T11:29:45.518Z,999
2015-11-28T11:30:45.427Z,998.9
2015-11-28T11:31:45.399Z,998.9
2015-11-28T11:32:45.433Z,999
2015-11-28T11:33:45.435Z,999
2015-11-28T11:34:45.360Z,999
2015-11-28T11:35:45.426Z,999
2015-11-28T11:36:45.066Z,999.1
2015-11-28T11:37:44.883Z,999.2
2015-11-28T11:38:44.824Z,999.2
2015-11-28T11:39:44.780Z,999.1
2015-11-28T11:40:45.751Z,999.3
2015-11-28T11:41:44.645Z,999.2
2015-11-28T11:42:44.600Z,999.2
2015-11-28T11:43:44.538Z,999.1
2015-11-28T11:44:44.479Z,999.1
2015-11-28T11:45:44.607Z,999.1
2015-11-28T11:46:44.361Z,999.2
2015-11-28T11:47:44.302Z,999.1
2015-11-28T11:48:44.241Z,999.2
2015-11-28T11:49:44.182Z,999.2
2015-11-28T11:50:44.185Z,999.2
2015-11-28T11:51:44.062Z,999.2
2015-11-28T11:52:44.065Z,999.2
2015-11-28T11:53:44.146Z,999.3
2015-11-28T11:54:43.896Z,999.3
2015-11-28T11:55:43.837Z,999.3
2015-11-28T11:56:43.778Z,999.2
2015-11-28T11:57:43.734Z,999.2
2015-11-28T11:58:43.659Z,999.3
2015-11-28T11:59:43.646Z,999
2015-11-28T12:00:43.539Z,999.1
2015-11-28T12:01:43.526Z,999.2
2015-11-28T12:02:43.464Z,999.2
2015-11-28T12:03:43.390Z,999.1
2015-11-28T12:04:43.315Z,999.2
2015-11-28T12:05:43.256Z,999.2
2015-11-28T12:06:43.227Z,999.3
2015-11-28T12:07:43.136Z,999.1
2015-11-28T12:08:43.123Z,999.3
2015-11-28T12:09:43.029Z,999.3
2015-11-28T12:10:42.986Z,999.4
2015-11-28T12:11:42.943Z,999.3
2015-11-28T12:12:42.869Z,999.4
2015-11-28T12:13:42.824Z,999.4
2015-11-28T12:14:42.795Z,999.3
2015-11-28T12:15:42.688Z,999.4
2015-11-28T12:16:42.629Z,999.3
2015-11-28T12:17:42.582Z,999.4
2015-11-28T12:18:42.554Z,999.4
2015-11-28T12:19:42.513Z,999.4
2015-11-28T12:20:42.390Z,999.4
2015-11-28T12:21:42.393Z,999.5
2015-11-28T12:22:42.302Z,999.6
2015-11-28T12:23:42.208Z,999.6
2015-11-28T12:24:42.164Z,999.7
2015-11-28T12:25:42.122Z,999.6
2015-11-28T12:26:42.063Z,999.8
2015-11-28T12:27:42.002Z,999.8
2015-11-28T12:28:41.943Z,999.8
2015-11-28T12:29:41.883Z,999.8
2015-11-28T12:30:41.821Z,999.8
2015-11-28T12:31:41.793Z,999.8
2015-11-28T12:32:41.748Z,999.8
2015-11-28T12:33:41.863Z,999.8
2015-11-28T12:34:41.615Z,999.8
2015-11-28T12:35:41.540Z,999.8
2015-11-28T12:36:41.495Z,999.8
2015-11-28T12:37:41.436Z,999.8
2015-11-28T12:38:41.357Z,999.8
2015-11-28T12:39:41.314Z,999.9
2015-11-28T12:40:41.287Z,999.9
2015-11-28T12:41:41.197Z,999.9
2015-11-28T12:42:41.168Z,999.9
2015-11-28T12:43:41.092Z,999.8
2015-11-28T12:44:41.033Z,999.9
2015-11-28T12:45:40.970Z,999.9
2015-11-28T12:46:41.004Z,999.9
2015-11-28T12:47:40.931Z,1000
2015-11-28T12:48:40.809Z,999.9
2015-11-28T12:49:40.749Z,1000.1
2015-11-28T12:50:40.721Z,1000
2015-11-28T12:51:39.877Z,1000
2015-11-28T12:52:40.583Z,1000.1
2015-11-28T12:53:40.539Z,1000
2015-11-28T12:54:40.463Z,1000.1
2015-11-28T12:55:40.638Z,1000.2
2015-11-28T12:56:40.549Z,1000.1